sensor_id;sensor_type;location;lat;lon;timestamp;P1;durP1;ratioP1;P2;durP2;ratioP2
44750;SDS011;30477;48.224;11.470;2024-03-25T00:00:23;2.37;;;2.03;;
44750;SDS011;30477;48.224;11.470;2024-03-25T00:05:15;4.38;;;1.80;;
44750;SDS011;30477;48.224;11.470;2024-03-25T00:07:47;5.30;;;1.90;;
44750;SDS011;30477;48.224;11.470;2024-03-25T00:10:12;2.95;;;2.20;;
44750;SDS011;30477;48.224;11.470;2024-03-25T00:12:38;3.77;;;2.13;;
44750;SDS011;30477;48.224;11.470;2024-03-25T00:15:03;3.57;;;2.30;;
44750;SDS011;30477;48.224;11.470;2024-03-25T00:17:29;3.88;;;2.20;;
44750;SDS011;30477;48.224;11.470;2024-03-25T00:19:55;4.63;;;2.53;;
44750;SDS011;30477;48.224;11.470;2024-03-25T00:22:21;4.73;;;2.13;;
44750;SDS011;30477;48.224;11.470;2024-03-25T00:27:15;4.82;;;2.28;;
44750;SDS011;30477;48.224;11.470;2024-03-25T00:29:41;4.22;;;2.50;;
44750;SDS011;30477;48.224;11.470;2024-03-25T00:32:06;5.93;;;2.67;;
44750;SDS011;30477;48.224;11.470;2024-03-25T00:34:32;3.07;;;2.00;;
44750;SDS011;30477;48.224;11.470;2024-03-25T00:37:01;5.03;;;2.60;;
44750;SDS011;30477;48.224;11.470;2024-03-25T00:39:27;5.82;;;2.33;;
44750;SDS011;30477;48.224;11.470;2024-03-25T00:41:52;3.72;;;2.10;;
44750;SDS011;30477;48.224;11.470;2024-03-25T00:44:18;3.15;;;2.10;;
44750;SDS011;30477;48.224;11.470;2024-03-25T00:46:44;5.82;;;2.45;;
44750;SDS011;30477;48.224;11.470;2024-03-25T00:49:09;2.40;;;1.87;;
44750;SDS011;30477;48.224;11.470;2024-03-25T00:51:35;4.13;;;2.22;;
44750;SDS011;30477;48.224;11.470;2024-03-25T00:54:01;4.65;;;2.28;;
44750;SDS011;30477;48.224;11.470;2024-03-25T00:56:26;2.50;;;2.17;;
44750;SDS011;30477;48.224;11.470;2024-03-25T00:58:52;5.00;;;2.20;;
44750;SDS011;30477;48.224;11.470;2024-03-25T01:01:17;5.13;;;2.40;;
44750;SDS011;30477;48.224;11.470;2024-03-25T01:03:43;5.20;;;2.20;;
44750;SDS011;30477;48.224;11.470;2024-03-25T01:06:08;3.53;;;2.17;;
44750;SDS011;30477;48.224;11.470;2024-03-25T01:08:34;4.30;;;2.35;;
44750;SDS011;30477;48.224;11.470;2024-03-25T01:10:59;5.37;;;2.10;;
44750;SDS011;30477;48.224;11.470;2024-03-25T01:13:25;4.63;;;2.10;;
44750;SDS011;30477;48.224;11.470;2024-03-25T01:15:51;6.50;;;2.25;;
44750;SDS011;30477;48.224;11.470;2024-03-25T01:18:16;4.22;;;2.30;;
44750;SDS011;30477;48.224;11.470;2024-03-25T01:20:42;4.23;;;1.87;;
44750;SDS011;30477;48.224;11.470;2024-03-25T01:23:07;3.17;;;1.90;;
44750;SDS011;30477;48.224;11.470;2024-03-25T01:25:33;4.33;;;2.10;;
44750;SDS011;30477;48.224;11.470;2024-03-25T01:27:58;5.40;;;2.00;;
44750;SDS011;30477;48.224;11.470;2024-03-25T01:30:23;5.87;;;2.43;;
44750;SDS011;30477;48.224;11.470;2024-03-25T01:32:48;5.17;;;2.00;;
44750;SDS011;30477;48.224;11.470;2024-03-25T01:35:14;5.60;;;3.10;;
44750;SDS011;30477;48.224;11.470;2024-03-25T01:40:07;4.97;;;2.03;;
44750;SDS011;30477;48.224;11.470;2024-03-25T01:42:35;4.35;;;2.17;;
44750;SDS011;30477;48.224;11.470;2024-03-25T01:45:01;5.60;;;2.75;;
44750;SDS011;30477;48.224;11.470;2024-03-25T01:47:28;5.47;;;2.25;;
44750;SDS011;30477;48.224;11.470;2024-03-25T01:49:54;3.33;;;2.40;;
44750;SDS011;30477;48.224;11.470;2024-03-25T01:52:21;5.00;;;2.10;;
44750;SDS011;30477;48.224;11.470;2024-03-25T01:54:48;4.07;;;2.00;;
44750;SDS011;30477;48.224;11.470;2024-03-25T01:57:14;5.93;;;2.33;;
44750;SDS011;30477;48.224;11.470;2024-03-25T01:59:40;4.05;;;2.40;;
44750;SDS011;30477;48.224;11.470;2024-03-25T02:02:06;6.40;;;3.10;;
44750;SDS011;30477;48.224;11.470;2024-03-25T02:04:31;4.57;;;2.30;;
44750;SDS011;30477;48.224;11.470;2024-03-25T02:06:56;3.80;;;2.33;;
44750;SDS011;30477;48.224;11.470;2024-03-25T02:11:48;4.10;;;2.15;;
44750;SDS011;30477;48.224;11.470;2024-03-25T02:14:14;4.43;;;2.38;;
44750;SDS011;30477;48.224;11.470;2024-03-25T02:16:40;4.45;;;2.60;;
44750;SDS011;30477;48.224;11.470;2024-03-25T02:19:06;3.37;;;2.40;;
44750;SDS011;30477;48.224;11.470;2024-03-25T02:21:33;7.05;;;2.78;;
44750;SDS011;30477;48.224;11.470;2024-03-25T02:23:59;4.53;;;2.70;;
44750;SDS011;30477;48.224;11.470;2024-03-25T02:26:25;5.72;;;2.95;;
44750;SDS011;30477;48.224;11.470;2024-03-25T02:28:50;4.53;;;2.80;;
44750;SDS011;30477;48.224;11.470;2024-03-25T02:31:15;5.20;;;3.00;;
44750;SDS011;30477;48.224;11.470;2024-03-25T02:33:41;4.40;;;2.70;;
44750;SDS011;30477;48.224;11.470;2024-03-25T02:36:07;4.60;;;2.78;;
44750;SDS011;30477;48.224;11.470;2024-03-25T02:38:33;4.97;;;2.67;;
44750;SDS011;30477;48.224;11.470;2024-03-25T02:40:58;5.73;;;3.03;;
44750;SDS011;30477;48.224;11.470;2024-03-25T02:43:24;5.47;;;2.97;;
44750;SDS011;30477;48.224;11.470;2024-03-25T02:45:50;3.40;;;2.80;;
44750;SDS011;30477;48.224;11.470;2024-03-25T02:48:15;5.43;;;3.00;;
44750;SDS011;30477;48.224;11.470;2024-03-25T02:50:40;3.37;;;2.80;;
44750;SDS011;30477;48.224;11.470;2024-03-25T02:53:06;5.70;;;2.90;;
44750;SDS011;30477;48.224;11.470;2024-03-25T02:55:31;4.10;;;2.60;;
44750;SDS011;30477;48.224;11.470;2024-03-25T02:57:57;6.50;;;3.30;;
44750;SDS011;30477;48.224;11.470;2024-03-25T03:00:22;5.00;;;2.87;;
44750;SDS011;30477;48.224;11.470;2024-03-25T03:02:48;5.45;;;2.92;;
44750;SDS011;30477;48.224;11.470;2024-03-25T03:05:13;10.50;;;3.10;;
44750;SDS011;30477;48.224;11.470;2024-03-25T03:07:38;6.40;;;2.90;;
44750;SDS011;30477;48.224;11.470;2024-03-25T03:10:04;6.63;;;3.07;;
44750;SDS011;30477;48.224;11.470;2024-03-25T03:12:30;7.45;;;3.13;;
44750;SDS011;30477;48.224;11.470;2024-03-25T03:14:55;9.57;;;3.40;;
44750;SDS011;30477;48.224;11.470;2024-03-25T03:17:21;5.53;;;2.50;;
44750;SDS011;30477;48.224;11.470;2024-03-25T03:19:46;5.77;;;2.70;;
44750;SDS011;30477;48.224;11.470;2024-03-25T03:22:11;3.37;;;2.40;;
44750;SDS011;30477;48.224;11.470;2024-03-25T03:24:36;6.03;;;3.10;;
44750;SDS011;30477;48.224;11.470;2024-03-25T03:27:02;5.80;;;3.07;;
44750;SDS011;30477;48.224;11.470;2024-03-25T03:29:28;4.43;;;2.70;;
44750;SDS011;30477;48.224;11.470;2024-03-25T03:31:54;5.38;;;2.88;;
44750;SDS011;30477;48.224;11.470;2024-03-25T03:34:20;4.63;;;2.57;;
44750;SDS011;30477;48.224;11.470;2024-03-25T03:36:46;5.30;;;2.97;;
44750;SDS011;30477;48.224;11.470;2024-03-25T03:39:11;5.05;;;3.10;;
44750;SDS011;30477;48.224;11.470;2024-03-25T03:41:38;7.50;;;2.90;;
44750;SDS011;30477;48.224;11.470;2024-03-25T03:44:03;3.43;;;2.47;;
44750;SDS011;30477;48.224;11.470;2024-03-25T03:46:29;4.70;;;2.63;;
44750;SDS011;30477;48.224;11.470;2024-03-25T03:48:54;5.57;;;2.70;;
44750;SDS011;30477;48.224;11.470;2024-03-25T03:51:19;6.47;;;2.80;;
44750;SDS011;30477;48.224;11.470;2024-03-25T03:53:45;3.17;;;2.60;;
44750;SDS011;30477;48.224;11.470;2024-03-25T03:56:10;4.33;;;2.80;;
44750;SDS011;30477;48.224;11.470;2024-03-25T03:58:35;6.20;;;3.00;;
44750;SDS011;30477;48.224;11.470;2024-03-25T04:01:01;5.20;;;2.77;;
44750;SDS011;30477;48.224;11.470;2024-03-25T04:03:26;6.40;;;2.87;;
44750;SDS011;30477;48.224;11.470;2024-03-25T04:05:52;8.00;;;2.67;;
44750;SDS011;30477;48.224;11.470;2024-03-25T04:08:17;6.03;;;3.00;;
44750;SDS011;30477;48.224;11.470;2024-03-25T04:10:43;4.53;;;2.60;;
44750;SDS011;30477;48.224;11.470;2024-03-25T04:13:09;5.68;;;2.70;;
44750;SDS011;30477;48.224;11.470;2024-03-25T04:15:35;3.25;;;2.75;;
44750;SDS011;30477;48.224;11.470;2024-03-25T04:18:00;6.82;;;2.60;;
44750;SDS011;30477;48.224;11.470;2024-03-25T04:20:26;4.67;;;2.63;;
44750;SDS011;30477;48.224;11.470;2024-03-25T04:22:53;4.30;;;2.55;;
44750;SDS011;30477;48.224;11.470;2024-03-25T04:25:19;4.88;;;3.22;;
44750;SDS011;30477;48.224;11.470;2024-03-25T04:27:44;3.60;;;2.43;;
44750;SDS011;30477;48.224;11.470;2024-03-25T04:30:10;7.07;;;3.30;;
44750;SDS011;30477;48.224;11.470;2024-03-25T04:32:36;4.63;;;2.78;;
44750;SDS011;30477;48.224;11.470;2024-03-25T04:35:02;5.15;;;2.80;;
44750;SDS011;30477;48.224;11.470;2024-03-25T04:37:29;4.65;;;2.75;;
44750;SDS011;30477;48.224;11.470;2024-03-25T04:39:55;5.30;;;2.65;;
44750;SDS011;30477;48.224;11.470;2024-03-25T04:42:21;5.88;;;3.35;;
44750;SDS011;30477;48.224;11.470;2024-03-25T04:44:47;5.47;;;3.38;;
44750;SDS011;30477;48.224;11.470;2024-03-25T04:47:13;6.73;;;3.33;;
44750;SDS011;30477;48.224;11.470;2024-03-25T04:49:40;8.13;;;4.03;;
44750;SDS011;30477;48.224;11.470;2024-03-25T04:52:05;6.32;;;3.42;;
44750;SDS011;30477;48.224;11.470;2024-03-25T04:54:31;7.33;;;3.13;;
44750;SDS011;30477;48.224;11.470;2024-03-25T04:56:56;4.40;;;2.83;;
44750;SDS011;30477;48.224;11.470;2024-03-25T04:59:21;7.00;;;3.10;;
44750;SDS011;30477;48.224;11.470;2024-03-25T05:01:47;6.00;;;2.93;;
44750;SDS011;30477;48.224;11.470;2024-03-25T05:04:12;4.50;;;2.83;;
44750;SDS011;30477;48.224;11.470;2024-03-25T05:06:38;6.17;;;3.37;;
44750;SDS011;30477;48.224;11.470;2024-03-25T05:09:03;5.33;;;2.80;;
44750;SDS011;30477;48.224;11.470;2024-03-25T05:11:30;4.97;;;3.05;;
44750;SDS011;30477;48.224;11.470;2024-03-25T05:13:56;4.30;;;2.80;;
44750;SDS011;30477;48.224;11.470;2024-03-25T05:16:21;6.30;;;3.20;;
44750;SDS011;30477;48.224;11.470;2024-03-25T05:18:47;4.83;;;2.83;;
44750;SDS011;30477;48.224;11.470;2024-03-25T05:21:12;7.83;;;2.83;;
44750;SDS011;30477;48.224;11.470;2024-03-25T05:23:37;4.80;;;2.90;;
44750;SDS011;30477;48.224;11.470;2024-03-25T05:26:02;7.07;;;3.27;;
44750;SDS011;30477;48.224;11.470;2024-03-25T05:28:28;6.70;;;2.90;;
44750;SDS011;30477;48.224;11.470;2024-03-25T05:30:53;4.60;;;3.03;;
44750;SDS011;30477;48.224;11.470;2024-03-25T05:33:19;3.87;;;2.80;;
44750;SDS011;30477;48.224;11.470;2024-03-25T05:35:44;5.13;;;2.93;;
44750;SDS011;30477;48.224;11.470;2024-03-25T05:38:09;4.83;;;3.03;;
44750;SDS011;30477;48.224;11.470;2024-03-25T05:40:35;6.23;;;3.33;;
44750;SDS011;30477;48.224;11.470;2024-03-25T05:43:00;4.70;;;3.07;;
44750;SDS011;30477;48.224;11.470;2024-03-25T05:45:25;6.63;;;2.80;;
44750;SDS011;30477;48.224;11.470;2024-03-25T05:47:51;6.30;;;2.83;;
44750;SDS011;30477;48.224;11.470;2024-03-25T05:50:16;6.23;;;3.30;;
44750;SDS011;30477;48.224;11.470;2024-03-25T05:52:41;7.77;;;3.80;;
44750;SDS011;30477;48.224;11.470;2024-03-25T05:55:07;5.90;;;3.30;;
44750;SDS011;30477;48.224;11.470;2024-03-25T05:57:34;4.30;;;3.08;;
44750;SDS011;30477;48.224;11.470;2024-03-25T06:00:00;5.18;;;3.35;;
44750;SDS011;30477;48.224;11.470;2024-03-25T06:02:26;6.50;;;3.50;;
44750;SDS011;30477;48.224;11.470;2024-03-25T06:04:51;4.30;;;2.90;;
44750;SDS011;30477;48.224;11.470;2024-03-25T06:07:16;9.30;;;3.70;;
44750;SDS011;30477;48.224;11.470;2024-03-25T06:09:42;8.47;;;3.40;;
44750;SDS011;30477;48.224;11.470;2024-03-25T06:12:07;4.87;;;3.23;;
44750;SDS011;30477;48.224;11.470;2024-03-25T06:14:33;4.45;;;3.42;;
44750;SDS011;30477;48.224;11.470;2024-03-25T06:16:58;4.83;;;3.33;;
44750;SDS011;30477;48.224;11.470;2024-03-25T06:19:24;6.87;;;3.27;;
44750;SDS011;30477;48.224;11.470;2024-03-25T06:21:49;6.13;;;3.37;;
44750;SDS011;30477;48.224;11.470;2024-03-25T06:24:15;4.93;;;3.53;;
44750;SDS011;30477;48.224;11.470;2024-03-25T06:26:40;5.47;;;3.30;;
44750;SDS011;30477;48.224;11.470;2024-03-25T06:29:05;4.83;;;3.30;;
44750;SDS011;30477;48.224;11.470;2024-03-25T06:31:30;5.97;;;3.30;;
44750;SDS011;30477;48.224;11.470;2024-03-25T06:34:15;5.13;;;3.10;;
44750;SDS011;30477;48.224;11.470;2024-03-25T06:36:43;7.13;;;3.30;;
44750;SDS011;30477;48.224;11.470;2024-03-25T06:39:09;7.68;;;3.20;;
44750;SDS011;30477;48.224;11.470;2024-03-25T06:41:35;4.50;;;3.17;;
44750;SDS011;30477;48.224;11.470;2024-03-25T06:44:00;11.07;;;4.03;;
44750;SDS011;30477;48.224;11.470;2024-03-25T06:46:26;5.43;;;3.23;;
44750;SDS011;30477;48.224;11.470;2024-03-25T06:48:51;10.33;;;3.57;;
44750;SDS011;30477;48.224;11.470;2024-03-25T06:51:20;8.25;;;3.83;;
44750;SDS011;30477;48.224;11.470;2024-03-25T06:53:45;6.80;;;3.77;;
44750;SDS011;30477;48.224;11.470;2024-03-25T06:56:10;6.83;;;3.50;;
44750;SDS011;30477;48.224;11.470;2024-03-25T06:58:36;7.87;;;3.57;;
44750;SDS011;30477;48.224;11.470;2024-03-25T07:01:05;5.77;;;3.37;;
44750;SDS011;30477;48.224;11.470;2024-03-25T07:03:32;5.32;;;3.15;;
44750;SDS011;30477;48.224;11.470;2024-03-25T07:05:58;5.78;;;3.35;;
44750;SDS011;30477;48.224;11.470;2024-03-25T07:08:25;6.78;;;3.67;;
44750;SDS011;30477;48.224;11.470;2024-03-25T07:10:52;5.90;;;3.45;;
44750;SDS011;30477;48.224;11.470;2024-03-25T07:13:17;6.82;;;3.03;;
44750;SDS011;30477;48.224;11.470;2024-03-25T07:15:43;4.90;;;3.00;;
44750;SDS011;30477;48.224;11.470;2024-03-25T07:18:09;7.43;;;3.20;;
44750;SDS011;30477;48.224;11.470;2024-03-25T07:20:42;5.88;;;2.70;;
44750;SDS011;30477;48.224;11.470;2024-03-25T07:23:08;7.13;;;2.90;;
44750;SDS011;30477;48.224;11.470;2024-03-25T07:25:34;5.55;;;2.72;;
44750;SDS011;30477;48.224;11.470;2024-03-25T07:27:59;6.63;;;2.73;;
44750;SDS011;30477;48.224;11.470;2024-03-25T07:30:25;5.33;;;3.20;;
44750;SDS011;30477;48.224;11.470;2024-03-25T07:32:53;6.47;;;3.10;;
44750;SDS011;30477;48.224;11.470;2024-03-25T07:35:21;5.45;;;3.08;;
44750;SDS011;30477;48.224;11.470;2024-03-25T07:37:47;6.78;;;3.13;;
44750;SDS011;30477;48.224;11.470;2024-03-25T07:40:16;5.07;;;2.90;;
44750;SDS011;30477;48.224;11.470;2024-03-25T07:42:41;5.87;;;3.13;;
44750;SDS011;30477;48.224;11.470;2024-03-25T07:45:07;5.80;;;2.83;;
44750;SDS011;30477;48.224;11.470;2024-03-25T07:47:32;6.77;;;2.93;;
44750;SDS011;30477;48.224;11.470;2024-03-25T07:49:58;6.43;;;3.10;;
44750;SDS011;30477;48.224;11.470;2024-03-25T07:52:24;6.05;;;2.92;;
44750;SDS011;30477;48.224;11.470;2024-03-25T07:54:50;9.00;;;2.88;;
44750;SDS011;30477;48.224;11.470;2024-03-25T07:57:16;9.52;;;3.50;;
44750;SDS011;30477;48.224;11.470;2024-03-25T07:59:41;6.35;;;3.30;;
44750;SDS011;30477;48.224;11.470;2024-03-25T08:02:07;3.17;;;2.73;;
44750;SDS011;30477;48.224;11.470;2024-03-25T08:04:32;6.03;;;3.20;;
44750;SDS011;30477;48.224;11.470;2024-03-25T08:06:57;6.20;;;3.33;;
44750;SDS011;30477;48.224;11.470;2024-03-25T08:09:23;7.20;;;3.50;;
44750;SDS011;30477;48.224;11.470;2024-03-25T08:11:48;8.80;;;3.50;;
44750;SDS011;30477;48.224;11.470;2024-03-25T08:14:13;5.13;;;3.27;;
44750;SDS011;30477;48.224;11.470;2024-03-25T08:16:39;9.70;;;3.10;;
44750;SDS011;30477;48.224;11.470;2024-03-25T08:19:04;5.68;;;2.60;;
44750;SDS011;30477;48.224;11.470;2024-03-25T08:21:30;6.57;;;3.30;;
44750;SDS011;30477;48.224;11.470;2024-03-25T08:23:56;7.33;;;3.47;;
44750;SDS011;30477;48.224;11.470;2024-03-25T08:26:21;5.40;;;3.57;;
44750;SDS011;30477;48.224;11.470;2024-03-25T08:28:47;6.33;;;3.33;;
44750;SDS011;30477;48.224;11.470;2024-03-25T08:31:14;7.68;;;3.30;;
44750;SDS011;30477;48.224;11.470;2024-03-25T08:33:39;8.80;;;3.95;;
44750;SDS011;30477;48.224;11.470;2024-03-25T08:36:05;4.83;;;3.00;;
44750;SDS011;30477;48.224;11.470;2024-03-25T08:38:30;6.83;;;3.27;;
44750;SDS011;30477;48.224;11.470;2024-03-25T08:40:55;7.67;;;3.50;;
44750;SDS011;30477;48.224;11.470;2024-03-25T08:43:21;7.53;;;3.70;;
44750;SDS011;30477;48.224;11.470;2024-03-25T08:45:46;7.07;;;3.43;;
44750;SDS011;30477;48.224;11.470;2024-03-25T08:48:11;8.83;;;3.63;;
44750;SDS011;30477;48.224;11.470;2024-03-25T08:50:37;7.37;;;3.70;;
44750;SDS011;30477;48.224;11.470;2024-03-25T08:53:02;8.27;;;3.70;;
44750;SDS011;30477;48.224;11.470;2024-03-25T08:55:28;8.75;;;4.00;;
44750;SDS011;30477;48.224;11.470;2024-03-25T08:57:54;7.20;;;3.90;;
44750;SDS011;30477;48.224;11.470;2024-03-25T09:00:19;7.50;;;3.80;;
44750;SDS011;30477;48.224;11.470;2024-03-25T09:02:45;8.50;;;3.33;;
44750;SDS011;30477;48.224;11.470;2024-03-25T09:05:10;6.93;;;3.80;;
44750;SDS011;30477;48.224;11.470;2024-03-25T09:07:35;8.87;;;3.73;;
44750;SDS011;30477;48.224;11.470;2024-03-25T09:10:01;5.83;;;3.37;;
44750;SDS011;30477;48.224;11.470;2024-03-25T09:12:45;5.53;;;3.33;;
44750;SDS011;30477;48.224;11.470;2024-03-25T09:15:11;6.30;;;3.50;;
44750;SDS011;30477;48.224;11.470;2024-03-25T09:17:36;8.83;;;3.60;;
44750;SDS011;30477;48.224;11.470;2024-03-25T09:20:02;6.80;;;3.67;;
44750;SDS011;30477;48.224;11.470;2024-03-25T09:22:54;6.75;;;3.58;;
44750;SDS011;30477;48.224;11.470;2024-03-25T09:25:19;5.27;;;3.30;;
44750;SDS011;30477;48.224;11.470;2024-03-25T09:27:48;7.18;;;3.60;;
44750;SDS011;30477;48.224;11.470;2024-03-25T09:30:15;5.47;;;3.60;;
44750;SDS011;30477;48.224;11.470;2024-03-25T09:32:40;5.35;;;3.22;;
44750;SDS011;30477;48.224;11.470;2024-03-25T09:35:07;6.32;;;3.33;;
44750;SDS011;30477;48.224;11.470;2024-03-25T09:37:33;7.88;;;3.30;;
44750;SDS011;30477;48.224;11.470;2024-03-25T09:39:58;6.07;;;3.33;;
44750;SDS011;30477;48.224;11.470;2024-03-25T09:42:27;8.52;;;3.75;;
44750;SDS011;30477;48.224;11.470;2024-03-25T09:44:59;6.85;;;3.17;;
44750;SDS011;30477;48.224;11.470;2024-03-25T09:47:24;5.60;;;2.90;;
44750;SDS011;30477;48.224;11.470;2024-03-25T09:49:50;5.45;;;3.05;;
44750;SDS011;30477;48.224;11.470;2024-03-25T09:52:16;5.72;;;3.58;;
44750;SDS011;30477;48.224;11.470;2024-03-25T09:54:42;4.65;;;2.67;;
44750;SDS011;30477;48.224;11.470;2024-03-25T09:57:08;4.83;;;2.90;;
44750;SDS011;30477;48.224;11.470;2024-03-25T09:59:33;6.00;;;2.90;;
44750;SDS011;30477;48.224;11.470;2024-03-25T10:01:59;6.83;;;3.13;;
44750;SDS011;30477;48.224;11.470;2024-03-25T10:04:25;6.90;;;2.55;;
44750;SDS011;30477;48.224;11.470;2024-03-25T10:06:51;6.87;;;3.10;;
44750;SDS011;30477;48.224;11.470;2024-03-25T10:09:20;3.73;;;2.50;;
44750;SDS011;30477;48.224;11.470;2024-03-25T10:11:49;3.67;;;2.50;;
44750;SDS011;30477;48.224;11.470;2024-03-25T10:14:15;3.80;;;2.22;;
44750;SDS011;30477;48.224;11.470;2024-03-25T10:16:41;5.53;;;2.38;;
44750;SDS011;30477;48.224;11.470;2024-03-25T10:19:06;4.10;;;2.53;;
44750;SDS011;30477;48.224;11.470;2024-03-25T10:21:32;4.93;;;2.70;;
44750;SDS011;30477;48.224;11.470;2024-03-25T10:23:58;3.23;;;2.50;;
44750;SDS011;30477;48.224;11.470;2024-03-25T10:26:27;5.90;;;2.80;;
44750;SDS011;30477;48.224;11.470;2024-03-25T10:29:03;4.90;;;2.60;;
44750;SDS011;30477;48.224;11.470;2024-03-25T10:31:31;3.50;;;2.35;;
44750;SDS011;30477;48.224;11.470;2024-03-25T10:33:56;5.07;;;2.47;;
44750;SDS011;30477;48.224;11.470;2024-03-25T10:36:22;3.57;;;2.30;;
44750;SDS011;30477;48.224;11.470;2024-03-25T10:38:49;4.60;;;2.25;;
44750;SDS011;30477;48.224;11.470;2024-03-25T10:41:19;4.00;;;1.77;;
44750;SDS011;30477;48.224;11.470;2024-03-25T10:43:46;3.10;;;2.10;;
44750;SDS011;30477;48.224;11.470;2024-03-25T10:46:13;2.65;;;1.70;;
44750;SDS011;30477;48.224;11.470;2024-03-25T10:48:46;2.63;;;1.40;;
44750;SDS011;30477;48.224;11.470;2024-03-25T10:51:15;2.50;;;1.52;;
44750;SDS011;30477;48.224;11.470;2024-03-25T10:53:41;3.30;;;1.50;;
44750;SDS011;30477;48.224;11.470;2024-03-25T10:56:08;2.13;;;1.40;;
44750;SDS011;30477;48.224;11.470;2024-03-25T10:58:35;4.18;;;1.90;;
44750;SDS011;30477;48.224;11.470;2024-03-25T11:03:27;4.47;;;1.70;;
44750;SDS011;30477;48.224;11.470;2024-03-25T11:05:53;3.03;;;1.80;;
44750;SDS011;30477;48.224;11.470;2024-03-25T11:08:18;2.97;;;1.67;;
44750;SDS011;30477;48.224;11.470;2024-03-25T11:10:44;3.00;;;1.70;;
44750;SDS011;30477;48.224;11.470;2024-03-25T11:13:14;3.40;;;1.90;;
44750;SDS011;30477;48.224;11.470;2024-03-25T11:15:42;5.70;;;1.83;;
44750;SDS011;30477;48.224;11.470;2024-03-25T11:18:14;2.33;;;1.65;;
44750;SDS011;30477;48.224;11.470;2024-03-25T11:20:40;2.60;;;1.52;;
44750;SDS011;30477;48.224;11.470;2024-03-25T11:23:09;2.97;;;1.97;;
44750;SDS011;30477;48.224;11.470;2024-03-25T11:25:38;3.20;;;1.98;;
44750;SDS011;30477;48.224;11.470;2024-03-25T11:28:05;2.80;;;1.83;;
44750;SDS011;30477;48.224;11.470;2024-03-25T11:30:31;3.58;;;1.60;;
44750;SDS011;30477;48.224;11.470;2024-03-25T11:32:57;6.83;;;2.20;;
44750;SDS011;30477;48.224;11.470;2024-03-25T11:35:24;3.70;;;2.00;;
44750;SDS011;30477;48.224;11.470;2024-03-25T11:37:49;3.88;;;1.92;;
44750;SDS011;30477;48.224;11.470;2024-03-25T11:40:17;9.73;;;3.40;;
44750;SDS011;30477;48.224;11.470;2024-03-25T11:42:43;5.10;;;2.58;;
44750;SDS011;30477;48.224;11.470;2024-03-25T11:45:16;2.28;;;1.67;;
44750;SDS011;30477;48.224;11.470;2024-03-25T11:47:43;2.53;;;1.98;;
44750;SDS011;30477;48.224;11.470;2024-03-25T11:50:10;3.33;;;1.98;;
44750;SDS011;30477;48.224;11.470;2024-03-25T11:52:37;6.03;;;2.67;;
44750;SDS011;30477;48.224;11.470;2024-03-25T11:55:05;3.43;;;2.20;;
44750;SDS011;30477;48.224;11.470;2024-03-25T11:57:33;5.32;;;2.15;;
44750;SDS011;30477;48.224;11.470;2024-03-25T11:59:59;2.42;;;1.48;;
44750;SDS011;30477;48.224;11.470;2024-03-25T12:02:25;2.73;;;1.80;;
44750;SDS011;30477;48.224;11.470;2024-03-25T12:04:51;2.97;;;1.95;;
44750;SDS011;30477;48.224;11.470;2024-03-25T12:07:16;4.47;;;2.33;;
44750;SDS011;30477;48.224;11.470;2024-03-25T12:09:42;4.68;;;2.20;;
44750;SDS011;30477;48.224;11.470;2024-03-25T12:12:26;3.97;;;1.88;;
44750;SDS011;30477;48.224;11.470;2024-03-25T12:14:52;3.23;;;1.87;;
44750;SDS011;30477;48.224;11.470;2024-03-25T12:17:19;4.15;;;1.90;;
44750;SDS011;30477;48.224;11.470;2024-03-25T12:20:06;4.10;;;1.92;;
44750;SDS011;30477;48.224;11.470;2024-03-25T12:22:34;3.22;;;1.85;;
44750;SDS011;30477;48.224;11.470;2024-03-25T12:27:29;4.00;;;2.13;;
44750;SDS011;30477;48.224;11.470;2024-03-25T12:30:02;6.97;;;2.88;;
44750;SDS011;30477;48.224;11.470;2024-03-25T12:32:30;5.10;;;2.13;;
44750;SDS011;30477;48.224;11.470;2024-03-25T12:34:58;4.70;;;2.15;;
44750;SDS011;30477;48.224;11.470;2024-03-25T12:37:25;4.60;;;2.33;;
44750;SDS011;30477;48.224;11.470;2024-03-25T12:39:51;4.68;;;1.83;;
44750;SDS011;30477;48.224;11.470;2024-03-25T12:42:17;4.10;;;2.03;;
44750;SDS011;30477;48.224;11.470;2024-03-25T12:44:42;2.67;;;1.93;;
44750;SDS011;30477;48.224;11.470;2024-03-25T12:47:07;3.80;;;1.83;;
44750;SDS011;30477;48.224;11.470;2024-03-25T12:49:33;2.13;;;1.43;;
44750;SDS011;30477;48.224;11.470;2024-03-25T12:51:58;3.83;;;1.80;;
44750;SDS011;30477;48.224;11.470;2024-03-25T12:54:23;2.50;;;1.70;;
44750;SDS011;30477;48.224;11.470;2024-03-25T12:56:49;3.13;;;2.07;;
44750;SDS011;30477;48.224;11.470;2024-03-25T12:59:14;2.57;;;2.07;;
44750;SDS011;30477;48.224;11.470;2024-03-25T13:01:40;3.40;;;1.73;;
44750;SDS011;30477;48.224;11.470;2024-03-25T13:04:05;2.47;;;1.50;;
44750;SDS011;30477;48.224;11.470;2024-03-25T13:06:31;1.93;;;1.57;;
44750;SDS011;30477;48.224;11.470;2024-03-25T13:08:56;3.20;;;1.70;;
44750;SDS011;30477;48.224;11.470;2024-03-25T13:11:22;4.83;;;1.70;;
44750;SDS011;30477;48.224;11.470;2024-03-25T13:13:47;4.65;;;2.40;;
44750;SDS011;30477;48.224;11.470;2024-03-25T13:16:13;3.43;;;1.77;;
44750;SDS011;30477;48.224;11.470;2024-03-25T13:18:38;1.80;;;1.60;;
44750;SDS011;30477;48.224;11.470;2024-03-25T13:21:03;3.50;;;1.83;;
44750;SDS011;30477;48.224;11.470;2024-03-25T13:23:29;1.73;;;1.50;;
44750;SDS011;30477;48.224;11.470;2024-03-25T13:25:54;2.83;;;1.50;;
44750;SDS011;30477;48.224;11.470;2024-03-25T13:28:20;2.33;;;1.73;;
44750;SDS011;30477;48.224;11.470;2024-03-25T13:30:46;3.47;;;2.13;;
44750;SDS011;30477;48.224;11.470;2024-03-25T13:33:12;5.17;;;2.80;;
44750;SDS011;30477;48.224;11.470;2024-03-25T13:35:37;2.87;;;1.67;;
44750;SDS011;30477;48.224;11.470;2024-03-25T13:38:03;4.07;;;2.17;;
44750;SDS011;30477;48.224;11.470;2024-03-25T13:40:28;4.03;;;2.10;;
44750;SDS011;30477;48.224;11.470;2024-03-25T13:42:54;4.63;;;2.20;;
44750;SDS011;30477;48.224;11.470;2024-03-25T13:45:19;4.07;;;2.00;;
44750;SDS011;30477;48.224;11.470;2024-03-25T13:47:44;3.80;;;2.00;;
44750;SDS011;30477;48.224;11.470;2024-03-25T13:50:09;3.40;;;1.83;;
44750;SDS011;30477;48.224;11.470;2024-03-25T13:52:36;2.85;;;2.00;;
44750;SDS011;30477;48.224;11.470;2024-03-25T13:55:02;3.60;;;2.07;;
44750;SDS011;30477;48.224;11.470;2024-03-25T13:59:53;3.53;;;1.87;;
44750;SDS011;30477;48.224;11.470;2024-03-25T14:02:18;3.63;;;1.93;;
44750;SDS011;30477;48.224;11.470;2024-03-25T14:04:43;3.17;;;1.90;;
44750;SDS011;30477;48.224;11.470;2024-03-25T14:07:09;4.70;;;1.83;;
44750;SDS011;30477;48.224;11.470;2024-03-25T14:09:34;7.03;;;1.63;;
44750;SDS011;30477;48.224;11.470;2024-03-25T14:12:00;1.83;;;1.60;;
44750;SDS011;30477;48.224;11.470;2024-03-25T14:14:25;2.93;;;2.03;;
44750;SDS011;30477;48.224;11.470;2024-03-25T14:16:50;4.27;;;1.83;;
44750;SDS011;30477;48.224;11.470;2024-03-25T14:21:42;4.07;;;2.13;;
44750;SDS011;30477;48.224;11.470;2024-03-25T14:24:07;5.40;;;1.97;;
44750;SDS011;30477;48.224;11.470;2024-03-25T14:26:33;3.73;;;2.00;;
44750;SDS011;30477;48.224;11.470;2024-03-25T14:28:58;4.35;;;1.98;;
44750;SDS011;30477;48.224;11.470;2024-03-25T14:31:27;3.90;;;1.90;;
44750;SDS011;30477;48.224;11.470;2024-03-25T14:33:54;3.38;;;2.33;;
44750;SDS011;30477;48.224;11.470;2024-03-25T14:36:19;4.73;;;2.20;;
44750;SDS011;30477;48.224;11.470;2024-03-25T14:38:45;5.03;;;2.93;;
44750;SDS011;30477;48.224;11.470;2024-03-25T14:41:17;7.37;;;3.30;;
44750;SDS011;30477;48.224;11.470;2024-03-25T14:43:43;5.47;;;2.53;;
44750;SDS011;30477;48.224;11.470;2024-03-25T14:46:09;3.77;;;2.60;;